Time;durP1;ratioP1;P1;durP2;ratioP2;P2;SDS_P1;SDS_P2;PMS_P1;PMS_P2;Temp;Humidity;BMP_temperature;BMP_pressure;BME280_temperature;BME280_humidity;BME280_pressure;Samples;Min_cycle;Max_cycle;Signal;HPM_P1;HPM_P2
2023/07/10 00:00:04;;;;;;;8.40;3.30;;;;;;;14.57;68.57;100905.11;102369;280;114576;-55
2023/07/10 00:02:42;;;;;;;5.10;3.20;;;;;;;14.56;68.65;100904.25;102358;280;97035;-55
2023/07/10 00:05:22;;;;;;;5.10;3.30;;;;;;;14.55;68.68;100903.51;102404;281;97549;-54
2023/07/10 00:07:58;;;;;;;4.70;3.20;;;;;;;14.52;69.05;100905.01;102364;280;120990;-54
2023/07/10 00:10:45;;;;;;;4.10;3.40;;;;;;;14.51;69.21;100907.80;102463;280;105698;-54
2023/07/10 00:13:27;;;;;;;4.70;3.30;;;;;;;14.54;69.17;100908.02;102402;280;115077;-54
2023/07/10 00:16:14;;;;;;;6.80;3.20;;;;;;;14.54;69.27;100902.70;102459;280;94895;-55
2023/07/10 00:18:52;;;;;;;6.40;4.00;;;;;;;14.54;69.41;100899.78;102428;280;97072;-54
2023/07/10 00:21:36;;;;;;;4.90;3.30;;;;;;;14.52;69.50;100899.91;102446;280;121122;-54
2023/07/10 00:24:17;;;;;;;5.60;3.20;;;;;;;14.47;69.85;100900.63;102454;279;105003;-55
2023/07/10 00:26:53;;;;;;;4.00;3.40;;;;;;;14.47;69.92;100895.36;102405;279;113160;-54
2023/07/10 00:29:31;;;;;;;4.20;3.30;;;;;;;14.42;70.20;100892.94;102411;280;94898;-54
2023/07/10 00:32:18;;;;;;;4.80;3.40;;;;;;;14.41;70.18;100891.45;102386;280;96381;-54
2023/07/10 00:34:59;;;;;;;8.20;4.20;;;;;;;14.38;70.25;100894.40;102392;280;120127;-56
2023/07/10 00:37:36;;;;;;;6.40;3.90;;;;;;;14.36;70.45;100892.80;102348;280;105765;-56
2023/07/10 00:40:23;;;;;;;5.10;3.80;;;;;;;14.32;70.52;100883.53;102397;280;114851;-56
2023/07/10 00:43:06;;;;;;;5.40;3.70;;;;;;;14.28;70.63;100888.96;102349;280;97245;-57
2023/07/10 00:45:43;;;;;;;5.00;3.80;;;;;;;14.24;70.79;100894.08;102435;280;96649;-55
2023/07/10 00:48:30;;;;;;;4.60;3.70;;;;;;;14.19;71.07;100898.08;102315;280;119654;-55
2023/07/10 00:51:12;;;;;;;;;;;;;;;14.17;71.19;100892.46;102466;280;106386;-55
2023/07/10 00:53:53;;;;;;;5.60;3.50;;;;;;;14.10;71.24;100890.38;102416;280;114713;-55
2023/07/10 00:56:45;;;;;;;6.40;3.50;;;;;;;14.06;71.36;100892.65;102390;280;95865;-54
2023/07/10 00:59:42;;;;;;;4.50;3.40;;;;;;;13.97;71.74;100891.38;102433;280;98413;-56
2023/07/10 01:02:27;;;;;;;4.90;3.00;;;;;;;13.95;72.07;100885.59;102388;280;121099;-56
2023/07/10 01:05:08;;;;;;;4.90;3.60;;;;;;;13.91;72.41;100885.33;102460;280;105480;-54
2023/07/10 01:07:55;;;;;;;4.10;3.20;;;;;;;13.89;72.43;100884.86;102356;280;114863;-54
2023/07/10 01:10:41;;;;;;;4.60;3.70;;;;;;;13.88;72.30;100885.73;102302;270;97083;-54
2023/07/10 01:13:21;;;;;;;5.20;3.30;;;;;;;13.84;72.69;100884.27;102397;280;96290;-55
2023/07/10 01:16:02;;;;;;;3.90;3.10;;;;;;;13.83;72.69;100885.17;102409;280;121833;-56
2023/07/10 01:18:42;;;;;;;5.30;3.30;;;;;;;13.84;72.85;100893.63;102384;281;104876;-56
2023/07/10 01:21:28;;;;;;;4.30;3.50;;;;;;;13.85;72.83;100896.89;102333;281;114162;-56
2023/07/10 01:24:08;;;;;;;5.20;3.60;;;;;;;13.81;73.02;100889.73;102408;280;96989;-55
2023/07/10 01:26:44;;;;;;;5.50;3.50;;;;;;;13.76;73.14;100892.81;102381;281;98052;-56
2023/07/10 01:29:25;;;;;;;5.50;3.60;;;;;;;13.76;73.33;100892.10;102374;280;120557;-55
2023/07/10 01:32:08;;;;;;;10.20;3.50;;;;;;;13.79;73.56;100891.59;102394;280;104945;-55
2023/07/10 01:34:53;;;;;;;4.90;3.30;;;;;;;13.80;73.69;100892.90;102368;280;114203;-55
2023/07/10 01:37:41;;;;;;;6.10;3.70;;;;;;;13.80;73.67;100890.96;102309;280;95179;-55
2023/07/10 01:40:29;;;;;;;6.40;3.70;;;;;;;13.76;73.67;100891.27;102396;280;97083;-55
2023/07/10 01:43:13;;;;;;;6.90;3.90;;;;;;;13.71;73.90;100888.90;102324;280;119267;-54
2023/07/10 01:45:49;;;;;;;6.30;3.90;;;;;;;13.63;74.17;100894.98;102460;280;105320;-56
2023/07/10 01:48:29;;;;;;;4.30;3.60;;;;;;;13.56;74.02;100896.77;102234;281;114726;-56
2023/07/10 01:51:05;;;;;;;7.80;3.80;;;;;;;13.55;74.19;100897.11;102422;280;97511;-54
2023/07/10 01:53:45;;;;;;;7.20;3.00;;;;;;;13.50;74.34;100899.52;102443;280;97359;-54
2023/07/10 01:56:28;;;;;;;5.90;3.70;;;;;;;13.45;74.70;100899.45;102447;280;118931;-54
2023/07/10 01:59:07;;;;;;;4.50;3.50;;;;;;;13.46;74.82;100895.01;102444;280;105920;-56
2023/07/10 02:01:46;;;;;;;3.70;3.00;;;;;;;13.45;74.93;100893.80;102426;280;114238;-56
2023/07/10 02:04:24;;;;;;;6.90;4.10;;;;;;;13.41;75.04;100887.70;102389;280;95152;-55
2023/07/10 02:07:03;;;;;;;4.90;3.60;;;;;;;13.39;75.22;100883.29;102384;281;96820;-54
2023/07/10 02:09:42;;;;;;;4.30;3.60;;;;;;;13.38;75.51;100875.44;102398;281;121252;-55
2023/07/10 02:12:24;;;;;;;3.80;3.20;;;;;;;13.35;75.70;100871.82;102388;280;105421;-55
2023/07/10 02:15:08;;;;;;;5.50;4.00;;;;;;;13.33;75.87;100866.59;102369;280;113506;-54
2023/07/10 02:17:45;;;;;;;4.00;3.60;;;;;;;13.33;75.79;100862.29;102386;304;94798;-55
2023/07/10 02:20:23;;;;;;;5.60;3.80;;;;;;;13.31;75.87;100858.09;102402;280;98607;-54
2023/07/10 02:23:00;;;;;;;6.90;3.40;;;;;;;13.31;75.95;100854.64;102336;280;121218;-55
2023/07/10 02:25:38;;;;;;;;;;;;;;;13.30;76.22;100857.05;102384;280;103881;-55
2023/07/10 02:28:21;;;;;;;4.40;3.80;;;;;;;13.33;76.24;100862.19;102344;280;113458;-54
2023/07/10 02:31:04;;;;;;;4.40;3.30;;;;;;;13.34;76.37;100868.02;102381;280;97079;-56
2023/07/10 02:33:44;;;;;;;5.30;3.70;;;;;;;13.35;76.41;100864.98;102353;268;96925;-57
2023/07/10 02:36:19;;;;;;;5.10;4.10;;;;;;;13.35;76.62;100863.31;102426;281;119684;-56
2023/07/10 02:39:01;;;;;;;5.30;3.90;;;;;;;13.34;76.68;100864.85;102435;281;105857;-54
2023/07/10 02:41:39;;;;;;;7.60;3.40;;;;;;;13.35;76.56;100866.44;102399;280;114892;-54
2023/07/10 02:44:20;;;;;;;5.50;3.70;;;;;;;13.36;76.45;100865.20;102445;280;95342;-57
2023/07/10 02:47:04;;;;;;;5.30;3.30;;;;;;;13.35;76.46;100869.27;102431;280;98181;-54
2023/07/10 02:49:39;;;;;;;6.10;3.70;;;;;;;13.32;76.55;100870.80;102446;280;123004;-54
2023/07/10 02:52:19;;;;;;;4.70;3.30;;;;;;;13.30;76.65;100875.79;102424;280;104975;-54
2023/07/10 02:54:58;;;;;;;4.90;3.50;;;;;;;13.27;76.51;100879.55;102429;280;114045;-55
2023/07/10 02:57:35;;;;;;;4.50;3.90;;;;;;;13.26;76.87;100877.83;102368;280;95128;-55
2023/07/10 03:00:12;;;;;;;5.10;3.80;;;;;;;13.26;76.91;100873.91;102436;280;97994;-57
2023/07/10 03:02:50;;;;;;;5.60;3.50;;;;;;;13.26;76.96;100871.31;102384;280;120900;-57
2023/07/10 03:05:36;;;;;;;4.70;3.70;;;;;;;13.30;77.06;100874.48;102414;280;105336;-57
2023/07/10 03:08:16;;;;;;;6.00;4.20;;;;;;;13.33;77.27;100880.44;102344;280;114309;-57
2023/07/10 03:11:00;;;;;;;5.00;3.90;;;;;;;13.37;77.24;100881.33;102362;280;95098;-55
2023/07/10 03:13:35;;;;;;;;;;;;;;;13.40;77.39;100883.65;102366;268;96229;-55
2023/07/10 03:16:13;;;;;;;5.40;4.50;;;;;;;13.42;77.62;100883.75;102400;280;119262;-56
2023/07/10 03:18:50;;;;;;;4.20;3.40;;;;;;;13.48;77.63;100888.46;102425;280;104009;-55
2023/07/10 03:21:29;;;;;;;5.20;3.70;;;;;;;13.60;77.77;100888.19;102367;280;113694;-55
2023/07/10 03:24:08;;;;;;;5.40;4.20;;;;;;;13.72;77.72;100884.55;102167;281;97930;-56
2023/07/10 03:26:43;;;;;;;6.40;4.10;;;;;;;13.84;77.75;100882.30;102296;281;96626;-55
2023/07/10 03:29:19;;;;;;;6.80;4.80;;;;;;;13.98;77.42;100884.44;102388;280;121275;-57
2023/07/10 03:32:00;;;;;;;5.90;5.20;;;;;;;14.20;77.08;100881.56;102343;280;105705;-57
2023/07/10 03:34:41;;;;;;;10.90;5.60;;;;;;;14.78;76.56;100883.55;102306;280;114400;-56
2023/07/10 03:37:25;;;;;;;6.50;4.40;;;;;;;15.80;75.65;100879.11;102293;281;94714;-56
2023/07/10 03:40:04;;;;;;;6.60;4.50;;;;;;;17.54;73.57;100877.05;102256;281;97028;-57
2023/07/10 03:42:40;;;;;;;4.80;3.90;;;;;;;19.05;71.26;100877.77;102236;281;119803;-57
2023/07/10 03:45:15;;;;;;;6.30;4.50;;;;;;;20.31;69.12;100876.77;102303;281;105429;-56
2023/07/10 03:47:57;;;;;;;6.10;4.80;;;;;;;21.37;66.96;100866.27;102260;281;115243;-57
2023/07/10 03:50:36;;;;;;;6.70;4.20;;;;;;;22.36;64.66;100863.16;102296;280;94921;-55
2023/07/10 03:53:12;;;;;;;5.10;4.10;;;;;;;23.20;62.68;100862.10;102246;280;97673;-55
2023/07/10 03:56:01;;;;;;;4.20;3.80;;;;;;;23.93;61.06;100864.46;102319;280;120454;-57
2023/07/10 03:58:45;;;;;;;5.20;3.60;;;;;;;24.74;58.83;100859.92;102284;280;103964;-57
2023/07/10 04:01:21;;;;;;;4.50;3.70;;;;;;;25.43;57.44;100860.19;102292;280;113749;-57
2023/07/10 04:04:06;;;;;;;4.30;3.30;;;;;;;26.04;55.92;100866.02;102332;280;93688;-55
2023/07/10 04:06:46;;;;;;;6.20;3.80;;;;;;;26.68;53.97;100872.73;102252;280;98068;-55
2023/07/10 04:09:27;;;;;;;4.70;4.10;;;;;;;27.27;52.98;100872.86;102313;281;120903;-56
2023/07/10 04:12:07;;;;;;;5.80;3.90;;;;;;;27.90;51.65;100875.23;102259;280;104232;-57
2023/07/10 04:14:51;;;;;;;7.10;3.90;;;;;;;28.39;50.03;100880.23;102329;281;113361;-55
2023/07/10 04:17:36;;;;;;;5.50;4.10;;;;;;;29.15;48.54;100880.72;102336;281;95005;-55
2023/07/10 04:20:13;;;;;;;3.80;3.50;;;;;;;29.93;46.72;100879.20;102312;280;96905;-55
2023/07/10 04:22:57;;;;;;;4.60;3.80;;;;;;;30.58;45.40;100870.38;102317;280;120330;-55
2023/07/10 04:25:37;;;;;;;4.40;3.50;;;;;;;31.15;43.78;100872.10;102416;280;105202;-55
2023/07/10 04:28:16;;;;;;;5.10;4.10;;;;;;;30.61;42.58;100867.79;102378;280;113448;-55
2023/07/10 04:30:55;;;;;;;5.00;3.70;;;;;;;28.95;43.03;100872.20;102439;280;94725;-56
2023/07/10 04:33:34;;;;;;;6.20;4.00;;;;;;;27.30;43.97;100868.82;102438;280;96980;-55
2023/07/10 04:36:14;;;;;;;4.60;3.90;;;;;;;26.14;44.99;100870.95;102356;280;120418;-55
2023/07/10 04:38:56;;;;;;;5.40;4.00;;;;;;;25.30;45.98;100873.95;102385;268;105191;-56
2023/07/10 04:41:38;;;;;;;16.10;5.20;;;;;;;24.75;46.83;100879.60;102369;280;114073;-57
2023/07/10 04:44:15;;;;;;;24.60;6.40;;;;;;;24.33;47.74;100884.76;102411;280;93854;-56
2023/07/10 04:46:51;;;;;;;25.10;6.50;;;;;;;23.97;48.39;100888.55;102377;280;96994;-57
2023/07/10 04:49:31;;;;;;;19.80;5.30;;;;;;;23.93;49.12;100888.01;102371;280;122069;-56
2023/07/10 04:52:09;;;;;;;8.60;4.20;;;;;;;24.41;48.95;100894.52;102388;276;105683;-56
2023/07/10 04:54:48;;;;;;;7.70;3.80;;;;;;;25.46;48.35;100891.66;102468;280;115535;-55
2023/07/10 04:57:33;;;;;;;4.00;3.30;;;;;;;26.16;47.53;100885.73;102375;280;94500;-52
2023/07/10 05:00:10;;;;;;;3.90;3.20;;;;;;;26.59;47.28;100882.67;102485;280;97023;-54
2023/07/10 05:02:52;;;;;;;4.20;3.60;;;;;;;27.28;46.41;100881.33;102458;280;120137;-55
2023/07/10 05:05:30;;;;;;;5.20;3.30;;;;;;;27.85;45.12;100890.21;102452;280;105391;-57
2023/07/10 05:08:08;;;;;;;7.00;3.30;;;;;;;29.43;43.94;100887.08;102411;280;114376;-55
2023/07/10 05:10:51;;;;;;;5.60;3.30;;;;;;;30.99;42.10;100885.61;102460;280;93836;-55
2023/07/10 05:13:35;;;;;;;4.20;3.30;;;;;;;32.37;40.12;100884.48;102417;280;97491;-55
2023/07/10 05:16:18;;;;;;;5.50;4.50;;;;;;;32.02;38.52;100888.23;102426;280;118701;-56
2023/07/10 05:19:02;;;;;;;4.50;3.70;;;;;;;30.14;38.63;100892.61;101568;281;983018;-54
2023/07/10 05:21:44;;;;;;;5.40;3.90;;;;;;;28.64;39.57;100893.99;102392;280;115031;-55
2023/07/10 05:24:28;;;;;;;5.30;3.90;;;;;;;27.70;40.53;100892.58;102391;280;94950;-55
2023/07/10 05:27:06;;;;;;;4.90;3.50;;;;;;;27.05;41.19;100894.91;102420;280;96265;-55
2023/07/10 05:29:43;;;;;;;5.00;3.80;;;;;;;26.66;41.64;100891.75;102401;280;120083;-60
2023/07/10 05:32:29;;;;;;;4.50;3.60;;;;;;;27.17;42.19;100886.06;102357;280;105131;-55
2023/07/10 05:35:10;;;;;;;4.90;3.30;;;;;;;28.23;41.57;100884.35;102359;280;113905;-57
2023/07/10 05:37:47;;;;;;;5.00;3.80;;;;;;;28.97;40.68;100883.15;102332;280;93595;-56
2023/07/10 05:40:24;;;;;;;5.20;4.00;;;;;;;28.41;40.11;100882.67;102414;280;98375;-57
2023/07/10 05:43:06;;;;;;;5.60;3.70;;;;;;;28.18;40.54;100882.20;102377;280;120943;-59
2023/07/10 05:45:44;;;;;;;5.40;3.40;;;;;;;29.13;40.40;100879.52;102464;280;105229;-56
2023/07/10 05:48:19;;;;;;;3.80;3.40;;;;;;;29.80;39.20;100874.25;102396;280;114312;-57
2023/07/10 05:50:56;;;;;;;4.30;2.90;;;;;;;29.38;39.24;100873.43;102301;281;95669;-54
2023/07/10 05:53:41;;;;;;;4.80;3.30;;;;;;;29.93;38.57;100870.79;102383;280;97133;-54
2023/07/10 05:56:18;;;;;;;3.20;2.70;;;;;;;30.05;38.11;100865.22;102397;280;120237;-55
2023/07/10 05:59:02;;;;;;;3.70;2.90;;;;;;;29.72;37.52;100867.52;102453;280;106081;-54
2023/07/10 06:01:49;;;;;;;3.70;2.80;;;;;;;30.12;37.28;100865.08;102371;281;114632;-55
2023/07/10 06:04:33;;;;;;;3.70;2.70;;;;;;;30.71;36.82;100869.36;102428;280;95087;-55
2023/07/10 06:07:21;;;;;;;3.80;2.80;;;;;;;31.87;36.09;100868.38;102404;280;96657;-54
2023/07/10 06:10:02;;;;;;;4.00;2.90;;;;;;;31.99;34.79;100863.72;102391;281;120183;-53
2023/07/10 06:12:43;;;;;;;7.20;3.10;;;;;;;30.43;35.62;100860.41;102382;280;104641;-54
2023/07/10 06:15:20;;;;;;;5.20;2.70;;;;;;;30.94;35.91;100861.04;102397;280;114744;-56
2023/07/10 06:18:00;;;;;;;5.40;2.80;;;;;;;32.76;35.27;100861.41;102391;280;93905;-57
2023/07/10 06:20:36;;;;;;;4.50;2.50;;;;;;;34.03;34.08;100859.95;102400;280;96915;-57
2023/07/10 06:23:25;;;;;;;4.00;2.30;;;;;;;33.87;33.43;100861.93;102344;280;120739;-56
2023/07/10 06:26:04;;;;;;;3.30;2.20;;;;;;;34.97;32.32;100860.19;102425;281;105945;-56
2023/07/10 06:28:42;;;;;;;2.90;2.20;;;;;;;35.58;31.15;100860.09;102381;281;114841;-56
2023/07/10 06:31:20;;;;;;;4.20;2.00;;;;;;;34.54;31.21;100863.16;102410;281;94870;-57
2023/07/10 06:33:55;;;;;;;4.50;2.40;;;;;;;32.88;31.82;100866.45;102443;280;97842;-54
2023/07/10 06:36:33;;;;;;;2.30;1.90;;;;;;;32.01;32.77;100866.21;102380;280;120309;-54
2023/07/10 06:39:11;;;;;;;4.10;2.50;;;;;;;32.23;33.25;100865.23;102448;280;105260;-55
2023/07/10 06:41:53;;;;;;;4.40;2.10;;;;;;;32.59;33.48;100865.65;102413;280;113559;-55
2023/07/10 06:44:33;;;;;;;2.70;2.10;;;;;;;33.60;32.34;100867.13;102423;280;95850;-53
2023/07/10 06:47:18;;;;;;;2.50;1.90;;;;;;;33.05;32.18;100866.52;102436;280;97653;-54
2023/07/10 06:49:58;;;;;;;3.80;2.30;;;;;;;33.68;32.19;100855.56;102418;280;120326;-57
2023/07/10 06:52:39;;;;;;;3.10;2.30;;;;;;;33.48;31.58;100853.46;102397;280;105203;-57
2023/07/10 06:55:20;;;;;;;3.20;2.50;;;;;;;32.95;31.52;100856.00;102367;280;113397;-54
2023/07/10 06:57:58;;;;;;;4.20;2.20;;;;;;;33.87;31.53;100856.23;102408;280;93589;-55
2023/07/10 07:00:36;;;;;;;3.70;2.20;;;;;;;35.22;30.60;100846.80;102454;280;96809;-55
2023/07/10 07:03:14;;;;;;;3.00;2.00;;;;;;;36.59;29.60;100841.23;102382;280;120410;-56
2023/07/10 07:05:54;;;;;;;2.80;2.20;;;;;;;37.41;27.94;100840.35;102398;280;103219;-57
2023/07/10 07:08:33;;;;;;;4.40;2.40;;;;;;;37.84;27.01;100839.24;102379;280;114876;-57
2023/07/10 07:11:08;;;;;;;2.30;1.70;;;;;;;38.15;26.50;100835.83;102438;280;94611;-56
2023/07/10 07:13:51;;;;;;;2.70;2.10;;;;;;;38.40;25.72;100828.98;102412;280;96848;-57
2023/07/10 07:16:32;;;;;;;2.20;1.90;;;;;;;38.58;25.29;100822.23;102375;280;119561;-56
2023/07/10 07:19:08;;;;;;;2.50;1.70;;;;;;;38.93;24.97;100816.31;102409;280;105415;-55
2023/07/10 07:21:45;;;;;;;3.80;2.10;;;;;;;39.31;24.79;100818.35;102381;280;113013;-55
2023/07/10 07:24:20;;;;;;;2.90;2.10;;;;;;;39.62;24.32;100813.41;102442;280;95223;-54
2023/07/10 07:26:59;;;;;;;5.30;2.50;;;;;;;39.11;24.18;100813.30;102403;280;98104;-54
2023/07/10 07:29:35;;;;;;;4.30;2.10;;;;;;;39.34;24.55;100819.13;102472;280;120380;-55
2023/07/10 07:32:12;;;;;;;3.90;2.30;;;;;;;39.89;23.87;100814.65;102458;280;103956;-55
2023/07/10 07:34:49;;;;;;;4.50;2.10;;;;;;;40.04;23.83;100812.27;102466;280;115125;-56
2023/07/10 07:37:30;;;;;;;2.60;2.20;;;;;;;40.35;23.69;100811.11;102413;280;93572;-56
2023/07/10 07:40:09;;;;;;;3.00;2.00;;;;;;;40.70;23.38;100804.30;102416;280;97200;-53
2023/07/10 07:42:44;;;;;;;2.30;2.00;;;;;;;41.13;22.74;100802.98;102387;280;120194;-53
2023/07/10 07:45:22;;;;;;;3.00;1.70;;;;;;;40.52;22.30;100803.21;102417;280;105700;-56
2023/07/10 07:47:57;;;;;;;2.50;1.80;;;;;;;40.03;22.47;100797.05;102411;280;115052;-57
2023/07/10 07:50:33;;;;;;;3.40;2.20;;;;;;;39.84;22.62;100795.24;102183;280;95975;-56
2023/07/10 07:53:09;;;;;;;4.40;2.00;;;;;;;40.01;22.44;100796.30;102397;280;97040;-54
2023/07/10 07:55:43;;;;;;;2.20;2.00;;;;;;;39.75;22.28;100793.55;102414;280;119419;-55
2023/07/10 07:58:21;;;;;;;2.00;1.60;;;;;;;39.75;22.25;100792.16;102379;280;105456;-54
2023/07/10 08:01:01;;;;;;;2.60;1.70;;;;;;;39.68;22.28;100792.11;102223;281;115011;-55
2023/07/10 08:03:45;;;;;;;3.60;2.30;;;;;;;39.95;22.54;100792.05;102227;281;94721;-55
2023/07/10 08:06:21;;;;;;;2.90;2.00;;;;;;;39.56;22.44;100802.21;102398;280;96763;-56
2023/07/10 08:09:01;;;;;;;2.00;1.70;;;;;;;39.49;22.39;100801.43;102265;281;119625;-56
2023/07/10 08:11:40;;;;;;;2.70;2.20;;;;;;;39.54;22.53;100798.87;102402;281;106019;-57
2023/07/10 08:14:16;;;;;;;2.80;1.80;;;;;;;39.71;22.25;100798.05;102421;280;114530;-54
2023/07/10 08:16:57;;;;;;;2.20;1.90;;;;;;;40.01;22.50;100793.13;102377;281;93911;-53
2023/07/10 08:19:40;;;;;;;4.20;1.90;;;;;;;40.25;22.15;100791.61;102404;280;97069;-56
2023/07/10 08:22:18;;;;;;;4.80;2.50;;;;;;;40.34;21.87;100787.87;102467;280;119726;-55
2023/07/10 08:24:58;;;;;;;11.30;2.70;;;;;;;40.40;21.80;100787.73;102410;280;104877;-55
2023/07/10 08:27:43;;;;;;;7.00;2.30;;;;;;;40.09;21.64;100784.39;102424;276;114467;-55
2023/07/10 08:30:23;;;;;;;2.30;2.00;;;;;;;40.58;22.07;100777.39;102410;280;94738;-56
2023/07/10 08:33:07;;;;;;;2.10;1.90;;;;;;;40.55;21.94;100780.85;102388;280;97782;-56
2023/07/10 08:35:53;;;;;;;3.40;2.30;;;;;;;41.07;21.78;100782.48;102462;280;121250;-57
2023/07/10 08:38:41;;;;;;;2.70;2.00;;;;;;;41.02;21.47;100780.71;102431;280;104784;-56
2023/07/10 08:41:22;;;;;;;3.00;2.20;;;;;;;41.11;21.46;100782.61;102363;280;114389;-54
2023/07/10 08:44:00;;;;;;;2.50;1.90;;;;;;;41.43;21.17;100783.60;102429;280;94995;-54
2023/07/10 08:46:45;;;;;;;2.10;1.80;;;;;;;41.35;20.87;100780.26;102348;280;95878;-55
2023/07/10 08:49:42;;;;;;;2.20;1.90;;;;;;;40.64;20.33;100777.90;102373;280;120320;-57
2023/07/10 08:52:41;;;;;;;3.00;2.10;;;;;;;40.25;20.54;100777.77;102379;280;105852;-56
2023/07/10 08:55:33;;;;;;;4.20;2.10;;;;;;;40.31;20.90;100783.85;102423;280;114336;-53
2023/07/10 08:58:19;;;;;;;2.00;1.70;;;;;;;40.15;20.59;100781.90;102393;280;95339;-54
2023/07/10 09:01:02;;;;;;;2.30;1.60;;;;;;;39.67;20.68;100784.46;102411;280;98942;-54
2023/07/10 09:04:02;;;;;;;2.70;2.10;;;;;;;38.81;21.41;100779.77;102379;280;121255;-54
2023/07/10 09:06:43;;;;;;;2.50;1.90;;;;;;;38.66;21.74;100772.06;102439;280;105489;-53
2023/07/10 09:09:39;;;;;;;2.30;1.90;;;;;;;38.32;21.82;100770.66;102417;280;114382;-55
2023/07/10 09:12:23;;;;;;;2.80;1.70;;;;;;;37.33;21.73;100776.05;102420;280;94699;-55
2023/07/10 09:15:03;;;;;;;3.10;1.80;;;;;;;35.96;22.53;100777.02;102444;280;97810;-54
2023/07/10 09:17:50;;;;;;;;;;;;;;;35.47;23.29;100774.14;102462;280;119591;-55
2023/07/10 09:20:32;;;;;;;3.40;1.70;;;;;;;34.99;23.94;100770.88;102400;280;107943;-57
2023/07/10 09:23:28;;;;;;;2.60;1.70;;;;;;;34.64;24.20;100771.79;102405;280;114769;-56
2023/07/10 09:26:11;;;;;;;2.80;1.70;;;;;;;34.16;24.37;100765.63;102371;280;94447;-55
2023/07/10 09:29:28;;;;;;;4.10;2.10;;;;;;;34.04;25.18;100761.27;102383;280;97958;-55
2023/07/10 09:32:16;;;;;;;2.90;1.90;;;;;;;34.04;25.59;100751.27;102373;280;121134;-62
2023/07/10 09:35:06;;;;;;;2.90;1.70;;;;;;;33.67;25.36;100751.73;102405;280;105547;-63
2023/07/10 09:37:54;;;;;;;3.50;1.80;;;;;;;33.38;25.90;100756.77;102189;280;113218;-62
2023/07/10 09:40:41;;;;;;;1.90;1.70;;;;;;;33.07;25.94;100756.14;102120;281;95417;-62
2023/07/10 09:43:25;;;;;;;2.50;2.00;;;;;;;32.82;26.33;100755.47;102371;281;98590;-62
2023/07/10 09:46:12;;;;;;;2.40;2.10;;;;;;;32.89;27.15;100747.31;102408;281;120815;-57
2023/07/10 09:48:54;;;;;;;3.00;1.90;;;;;;;33.11;26.88;100744.42;102266;281;105090;-56
2023/07/10 09:51:37;;;;;;;2.40;1.70;;;;;;;32.94;26.72;100743.13;102138;281;115350;-57
2023/07/10 09:54:22;;;;;;;3.70;1.70;;;;;;;32.65;26.66;100746.97;102380;280;93862;-56
2023/07/10 09:57:03;;;;;;;2.30;1.70;;;;;;;32.80;26.77;100746.10;102374;280;97507;-55
2023/07/10 09:59:48;;;;;;;2.00;1.60;;;;;;;33.17;27.61;100739.66;102407;280;120719;-54
2023/07/10 10:02:44;;;;;;;2.60;1.70;;;;;;;33.23;26.52;100735.98;102447;268;106208;-54
2023/07/10 10:05:25;;;;;;;2.50;1.60;;;;;;;32.91;26.00;100730.45;102453;280;114859;-54
2023/07/10 10:08:21;;;;;;;1.80;1.60;;;;;;;32.19;25.67;100737.94;102361;280;93978;-54
2023/07/10 10:11:08;;;;;;;2.60;1.80;;;;;;;32.08;26.49;100735.38;102428;281;97141;-63
2023/07/10 10:13:56;;;;;;;3.00;2.00;;;;;;;32.31;26.48;100732.45;102394;281;120139;-56
2023/07/10 10:16:44;;;;;;;2.50;1.40;;;;;;;32.14;26.02;100727.48;102391;280;104870;-57
2023/07/10 10:19:27;;;;;;;1.80;1.50;;;;;;;32.29;25.76;100723.01;102377;280;114646;-53
2023/07/10 10:22:05;;;;;;;2.50;1.60;;;;;;;32.15;25.27;100720.48;102366;280;95165;-54
2023/07/10 10:24:43;;;;;;;3.40;1.90;;;;;;;32.50;26.18;100717.09;102400;281;96444;-56
2023/07/10 10:27:39;;;;;;;2.60;1.50;;;;;;;32.86;26.56;100716.71;102344;280;121000;-55
2023/07/10 10:30:39;;;;;;;3.10;1.50;;;;;;;33.20;26.52;100713.64;102257;281;104111;-55
2023/07/10 10:33:29;;;;;;;2.10;1.70;;;;;;;33.06;25.50;100715.06;102377;280;113458;-55
2023/07/10 10:36:31;;;;;;;3.70;1.50;;;;;;;32.78;25.31;100714.70;102396;280;93750;-56
2023/07/10 10:39:20;;;;;;;2.60;1.50;;;;;;;32.72;25.17;100703.65;102459;269;97215;-55
2023/07/10 10:42:02;;;;;;;1.80;1.40;;;;;;;32.75;24.87;100703.72;102398;280;120592;-54
2023/07/10 10:45:04;;;;;;;8.50;1.80;;;;;;;32.53;24.51;100699.98;102378;280;106476;-55
2023/07/10 10:47:57;;;;;;;2.30;1.50;;;;;;;32.24;24.36;100702.52;102199;282;114267;-56
2023/07/10 10:50:52;;;;;;;2.00;1.50;;;;;;;31.88;24.45;100704.08;102468;280;94177;-55
2023/07/10 10:53:53;;;;;;;1.60;1.50;;;;;;;31.65;24.64;100698.30;102446;280;98037;-56
2023/07/10 10:56:35;;;;;;;2.70;1.50;;;;;;;31.93;24.81;100689.83;102421;280;121123;-56
2023/07/10 10:59:34;;;;;;;2.00;1.40;;;;;;;32.32;24.76;100687.38;102434;280;104173;-56
2023/07/10 11:02:30;;;;;;;1.80;1.30;;;;;;;32.35;24.19;100684.05;102266;280;114978;-56
2023/07/10 11:05:18;;;;;;;2.30;1.50;;;;;;;32.26;24.02;100685.39;102326;280;95174;-54
2023/07/10 11:08:03;;;;;;;1.40;1.30;;;;;;;32.30;23.91;100680.85;102394;280;97816;-54
2023/07/10 11:10:43;;;;;;;1.40;1.30;;;;;;;32.54;24.42;100674.27;102372;280;120493;-56
2023/07/10 11:13:34;;;;;;;1.90;1.40;;;;;;;32.48;23.92;100674.40;102367;269;105780;-56
2023/07/10 11:16:13;;;;;;;1.70;1.30;;;;;;;32.23;24.02;100667.73;102369;280;114381;-54
2023/07/10 11:18:49;;;;;;;1.90;1.40;;;;;;;31.98;23.69;100672.36;102403;280;92844;-54
2023/07/10 11:21:36;;;;;;;2.30;1.50;;;;;;;31.85;23.91;100661.89;102376;280;98331;-54
2023/07/10 11:24:36;;;;;;;1.30;1.10;;;;;;;31.71;23.59;100654.49;102438;280;119719;-55
2023/07/10 11:27:27;;;;;;;3.20;1.50;;;;;;;31.45;23.83;100646.77;102400;280;103667;-55
2023/07/10 11:30:14;;;;;;;2.10;1.30;;;;;;;31.49;24.11;100633.88;102415;280;113371;-55
2023/07/10 11:33:24;;;;;;;2.40;1.50;;;;;;;31.65;24.14;100635.59;102445;280;93903;-55
2023/07/10 11:36:37;;;;;;;3.40;1.60;;;;;;;31.77;24.45;100630.73;102533;280;95388;-55
2023/07/10 11:39:34;;;;;;;1.90;1.60;;;;;;;31.58;24.40;100634.13;102356;280;120202;-55
2023/07/10 11:45:33;;;;;;;1.90;1.40;;;;;;;31.72;24.69;100630.20;102322;280;112822;-56
2023/07/10 11:48:53;;;;;;;2.00;1.30;;;;;;;31.87;24.61;100628.20;102378;280;94089;-56
2023/07/10 11:51:39;;;;;;;2.30;1.50;;;;;;;31.78;24.66;100627.96;102384;281;96619;-57
2023/07/10 11:54:44;;;;;;;1.70;1.30;;;;;;;31.45;24.57;100626.13;102441;280;120795;-56
2023/07/10 11:57:25;;;;;;;2.80;1.50;;;;;;;31.37;24.58;100626.46;102118;280;106073;-56
2023/07/10 12:00:27;;;;;;;2.50;1.40;;;;;;;31.12;24.38;100614.91;102406;280;112173;-57
2023/07/10 12:03:04;;;;;;;3.20;1.60;;;;;;;31.00;24.72;100606.54;102341;280;94486;-56
2023/07/10 12:05:46;;;;;;;3.00;1.30;;;;;;;31.06;24.90;100599.61;102428;280;97731;-55
2023/07/10 12:08:25;;;;;;;1.80;1.40;;;;;;;31.30;25.27;100597.48;102392;280;120962;-55
2023/07/10 12:11:01;;;;;;;2.50;1.40;;;;;;;31.33;25.25;100597.79;102429;280;105978;-54
2023/07/10 12:13:39;;;;;;;1.30;1.10;;;;;;;31.25;24.87;100600.09;102346;280;114236;-55
2023/07/10 12:16:15;;;;;;;2.70;1.50;;;;;;;31.21;24.72;100600.64;102315;280;93170;-54
2023/07/10 12:18:53;;;;;;;3.60;1.50;;;;;;;31.10;24.99;100597.43;102439;280;97762;-56
2023/07/10 12:21:29;;;;;;;1.70;1.30;;;;;;;31.04;25.41;100596.09;102340;280;119970;-56
2023/07/10 12:24:18;;;;;;;1.80;1.30;;;;;;;31.01;25.41;100590.09;102404;280;104007;-55
2023/07/10 12:27:01;;;;;;;2.20;1.50;;;;;;;30.73;25.16;100592.83;102364;280;114171;-55
2023/07/10 12:29:47;;;;;;;3.10;1.60;;;;;;;30.59;25.14;100597.72;102461;280;93363;-54
2023/07/10 12:32:27;;;;;;;2.10;1.20;;;;;;;30.51;25.22;100593.78;102448;280;96028;-54
2023/07/10 12:35:03;;;;;;;2.40;1.50;;;;;;;30.36;25.24;100594.75;102414;280;120359;-54